createdAt,value
2023-04-07T00:00:37.538Z,9.53
2023-04-07T00:03:09.888Z,8.43
2023-04-07T00:05:37.381Z,8.83
2023-04-07T00:08:04.557Z,9.43
2023-04-07T00:10:33.781Z,11.53
2023-04-07T00:13:01.022Z,10.80
2023-04-07T00:15:35.330Z,11.63
2023-04-07T00:18:04.661Z,11.40
2023-04-07T00:20:33.916Z,11.80
2023-04-07T00:23:01.123Z,11.03
2023-04-07T00:25:30.566Z,12.03
2023-04-07T00:27:57.697Z,12.70
2023-04-07T00:30:24.964Z,12.77
2023-04-07T00:32:52.265Z,11.20
2023-04-07T00:35:19.472Z,8.70
2023-04-07T00:37:48.766Z,13.80
2023-04-07T00:40:20.113Z,10.93
2023-04-07T00:42:47.270Z,10.97
2023-04-07T00:45:19.352Z,10.73
2023-04-07T00:47:46.539Z,11.40
2023-04-07T00:50:16.264Z,9.07
2023-04-07T00:52:46.344Z,11.50
2023-04-07T00:55:15.971Z,11.43
2023-04-07T00:57:46.877Z,9.17
2023-04-07T01:00:16.759Z,10.10
2023-04-07T01:02:56.205Z,12.67
2023-04-07T01:05:45.464Z,11.18
2023-04-07T01:08:24.922Z,11.70
2023-04-07T01:10:57.320Z,13.17
2023-04-07T01:13:38.685Z,10.73
2023-04-07T01:16:12.587Z,10.07
2023-04-07T01:18:44.243Z,11.93
2023-04-07T01:21:15.568Z,11.67
2023-04-07T01:24:01.656Z,13.80
2023-04-07T01:26:33.503Z,13.73
2023-04-07T01:29:11.319Z,12.93
2023-04-07T01:31:41.829Z,13.53
2023-04-07T01:34:13.392Z,13.57
2023-04-07T01:36:41.762Z,13.97
2023-04-07T01:39:12.206Z,18.87
2023-04-07T01:41:41.276Z,13.93
2023-04-07T01:44:13.598Z,16.33
2023-04-07T01:46:45.617Z,17.93
2023-04-07T01:49:16.033Z,14.37
2023-04-07T01:51:50.542Z,16.03
2023-04-07T01:54:18.876Z,18.20
2023-04-07T01:56:48.175Z,15.93
2023-04-07T01:59:20.056Z,16.07
2023-04-07T02:01:47.962Z,18.17
2023-04-07T02:04:39.237Z,14.00
2023-04-07T02:07:19.671Z,14.63
2023-04-07T02:09:51.045Z,17.00
2023-04-07T02:12:18.313Z,16.27
2023-04-07T02:14:48.148Z,14.63
2023-04-07T02:17:16.560Z,16.80
2023-04-07T02:19:50.080Z,17.63
2023-04-07T02:22:19.960Z,17.10
2023-04-07T02:24:47.254Z,15.77
2023-04-07T02:27:17.577Z,17.23
2023-04-07T02:29:44.698Z,14.27
2023-04-07T02:32:17.936Z,16.60
2023-04-07T02:34:46.224Z,14.33
2023-04-07T02:37:16.058Z,17.17
2023-04-07T02:39:43.204Z,17.93
2023-04-07T02:42:12.839Z,16.33
2023-04-07T02:44:39.987Z,17.53
2023-04-07T02:47:11.612Z,16.37
2023-04-07T02:49:43.359Z,17.80
2023-04-07T02:52:10.628Z,16.47
2023-04-07T02:54:37.762Z,16.97
2023-04-07T02:57:04.898Z,17.37
2023-04-07T02:59:34.625Z,14.70
2023-04-07T03:02:01.861Z,16.63
2023-04-07T03:04:31.902Z,15.20
2023-04-07T03:07:01.668Z,15.07
2023-04-07T03:09:28.802Z,16.30
2023-04-07T03:11:58.442Z,16.13
2023-04-07T03:14:28.096Z,13.93
2023-04-07T03:16:56.553Z,14.73
2023-04-07T03:19:28.900Z,15.13
2023-04-07T03:21:56.277Z,15.33
2023-04-07T03:24:26.096Z,14.67
2023-04-07T03:26:56.145Z,17.30
2023-04-07T03:29:27.641Z,14.57
2023-04-07T03:31:56.998Z,14.63
2023-04-07T03:34:24.228Z,15.50
2023-04-07T03:36:56.153Z,18.77
2023-04-07T03:39:23.296Z,16.97
2023-04-07T03:41:51.741Z,14.37
2023-04-07T03:44:19.116Z,14.83
2023-04-07T03:46:50.545Z,15.47
2023-04-07T03:49:20.277Z,15.27
2023-04-07T03:51:49.844Z,15.57
2023-04-07T03:54:19.235Z,16.97
2023-04-07T03:56:48.489Z,14.67
2023-04-07T03:59:18.303Z,14.53
2023-04-07T04:01:47.660Z,15.00
2023-04-07T04:04:14.894Z,18.97
2023-04-07T04:06:44.498Z,14.87
2023-04-07T04:09:11.625Z,14.33
2023-04-07T04:11:38.755Z,16.47
2023-04-07T04:14:06.554Z,14.57
2023-04-07T04:16:35.942Z,14.07
2023-04-07T04:19:07.998Z,16.30
2023-04-07T04:21:35.202Z,15.97
2023-04-07T04:24:04.704Z,15.53
2023-04-07T04:26:31.997Z,18.40
2023-04-07T04:29:03.814Z,16.07
2023-04-07T04:31:33.742Z,18.90
2023-04-07T04:34:05.426Z,22.13
2023-04-07T04:36:32.791Z,17.07
2023-04-07T04:38:59.947Z,16.20
2023-04-07T04:41:29.579Z,17.37
2023-04-07T04:43:56.843Z,20.00
2023-04-07T04:46:25.714Z,15.30
2023-04-07T04:48:55.415Z,15.43
2023-04-07T04:51:25.053Z,16.87
2023-04-07T04:53:57.117Z,18.13
2023-04-07T04:56:24.428Z,22.13
2023-04-07T04:58:53.876Z,20.67
2023-04-07T05:01:21.115Z,16.60
2023-04-07T05:03:50.710Z,19.20
2023-04-07T05:06:18.094Z,17.93
2023-04-07T05:08:45.479Z,20.47
2023-04-07T05:11:19.131Z,21.00
2023-04-07T05:13:48.425Z,18.70
2023-04-07T05:16:15.658Z,19.77
2023-04-07T05:18:45.156Z,19.17
2023-04-07T05:21:12.256Z,24.67
2023-04-07T05:23:41.818Z,21.70
2023-04-07T05:26:09.002Z,22.77
2023-04-07T05:28:36.263Z,23.53
2023-04-07T05:31:07.803Z,23.83
2023-04-07T05:33:35.420Z,19.87
2023-04-07T05:36:07.562Z,24.97
2023-04-07T05:38:36.830Z,24.30
2023-04-07T05:41:04.038Z,21.10
2023-04-07T05:43:31.146Z,22.53
2023-04-07T05:45:58.282Z,23.50
2023-04-07T05:48:25.533Z,19.90
2023-04-07T05:50:52.703Z,22.07
2023-04-07T05:53:22.549Z,20.40
2023-04-07T05:55:49.684Z,16.13
2023-04-07T05:58:16.962Z,19.53
2023-04-07T06:00:46.613Z,17.87
2023-04-07T06:03:13.826Z,20.13
2023-04-07T06:05:46.909Z,20.60
2023-04-07T06:08:21.060Z,20.23
2023-04-07T06:10:48.382Z,18.43
2023-04-07T06:13:20.523Z,20.50
2023-04-07T06:15:52.411Z,20.00
2023-04-07T06:18:21.778Z,21.17
2023-04-07T06:20:48.930Z,20.90
2023-04-07T06:23:18.497Z,18.43
2023-04-07T06:25:51.806Z,22.17
2023-04-07T06:28:19.456Z,21.37
2023-04-07T06:30:47.302Z,20.90
2023-04-07T06:33:14.458Z,23.70
2023-04-07T06:35:44.307Z,20.17
2023-04-07T06:38:16.229Z,17.47
2023-04-07T06:40:43.335Z,20.43
2023-04-07T06:43:10.522Z,20.10
2023-04-07T06:45:37.830Z,23.60
2023-04-07T06:48:07.558Z,20.03
2023-04-07T06:50:39.475Z,19.27
2023-04-07T06:53:11.328Z,21.90
2023-04-07T06:55:40.635Z,18.80
2023-04-07T06:58:07.890Z,20.27
2023-04-07T07:00:36.080Z,21.70
2023-04-07T07:03:07.786Z,19.73
2023-04-07T07:05:39.447Z,23.07
2023-04-07T07:08:11.236Z,22.27
2023-04-07T07:10:41.189Z,19.37
2023-04-07T07:13:08.289Z,21.27
2023-04-07T07:15:37.856Z,17.33
2023-04-07T07:18:07.193Z,25.40
2023-04-07T07:20:39.200Z,23.07
2023-04-07T07:23:08.934Z,21.00
2023-04-07T07:25:36.659Z,21.37
2023-04-07T07:28:06.257Z,22.87
2023-04-07T07:30:35.574Z,19.03
2023-04-07T07:33:05.167Z,24.17
2023-04-07T07:35:34.464Z,20.57
2023-04-07T07:38:06.781Z,19.63
2023-04-07T07:40:36.375Z,24.67
2023-04-07T07:43:08.254Z,24.27
2023-04-07T07:45:35.400Z,25.57
2023-04-07T07:48:02.582Z,20.60
2023-04-07T07:50:30.443Z,21.27
2023-04-07T07:52:57.645Z,22.37
2023-04-07T07:55:31.250Z,23.13
2023-04-07T07:57:58.442Z,22.07
2023-04-07T08:00:25.614Z,22.67
2023-04-07T08:02:53.217Z,20.83
2023-04-07T08:05:20.636Z,21.20
2023-04-07T08:07:54.692Z,24.50
2023-04-07T08:10:26.436Z,22.20
2023-04-07T08:12:55.927Z,21.60
2023-04-07T08:15:25.608Z,17.57
2023-04-07T08:17:54.686Z,19.87
2023-04-07T08:20:26.686Z,20.47
2023-04-07T08:22:53.998Z,20.23
2023-04-07T08:25:23.505Z,14.77
2023-04-07T08:27:50.947Z,16.27
2023-04-07T08:30:18.162Z,18.23
2023-04-07T08:32:45.794Z,13.80
2023-04-07T08:35:13.055Z,15.53
2023-04-07T08:37:41.233Z,14.23
2023-04-07T08:40:11.860Z,13.40
2023-04-07T08:42:49.165Z,12.87
2023-04-07T08:45:19.063Z,15.77
2023-04-07T08:47:59.092Z,14.37
2023-04-07T08:50:28.261Z,13.33
2023-04-07T08:53:03.399Z,13.67
2023-04-07T08:55:31.580Z,13.40
2023-04-07T08:58:02.217Z,11.83
2023-04-07T09:00:32.687Z,13.90
2023-04-07T09:03:03.667Z,11.37
2023-04-07T09:05:33.995Z,12.37
2023-04-07T09:08:04.360Z,9.57
2023-04-07T09:10:39.240Z,10.87
2023-04-07T09:13:06.719Z,13.27
2023-04-07T09:15:34.613Z,13.07
2023-04-07T09:18:04.976Z,11.50
2023-04-07T09:20:59.299Z,7.00
2023-04-07T09:23:34.835Z,7.20
2023-04-07T09:26:23.115Z,6.87
2023-04-07T09:29:00.097Z,5.33
2023-04-07T09:31:52.083Z,4.50
2023-04-07T09:34:29.902Z,5.40
2023-04-07T09:37:05.634Z,6.47
2023-04-07T09:39:35.533Z,9.27
2023-04-07T09:42:07.896Z,7.00
2023-04-07T09:44:43.231Z,4.57
2023-04-07T09:47:11.167Z,6.13
2023-04-07T09:49:55.213Z,6.80
2023-04-07T09:52:49.048Z,5.50
2023-04-07T09:55:17.435Z,4.30
2023-04-07T09:57:45.522Z,6.50
2023-04-07T10:00:13.157Z,6.33
2023-04-07T10:02:43.123Z,6.07
2023-04-07T10:05:13.894Z,4.33
2023-04-07T10:07:42.731Z,3.30
2023-04-07T10:10:12.960Z,4.57
2023-04-07T10:12:43.757Z,4.87
2023-04-07T10:15:15.944Z,5.53
2023-04-07T10:17:49.936Z,4.87
2023-04-07T10:20:23.198Z,4.17
2023-04-07T10:22:55.563Z,7.73
2023-04-07T10:25:28.675Z,3.67
2023-04-07T10:28:09.691Z,4.37
2023-04-07T10:30:37.097Z,9.73
2023-04-07T10:33:05.221Z,5.23
2023-04-07T10:36:08.642Z,7.10
2023-04-07T10:38:38.341Z,3.97
2023-04-07T10:41:34.747Z,8.60
2023-04-07T10:44:04.524Z,7.63
2023-04-07T10:46:47.285Z,6.87
2023-04-07T10:49:19.055Z,5.80
2023-04-07T10:52:12.143Z,4.37
2023-04-07T10:54:42.946Z,4.57
2023-04-07T10:57:14.161Z,5.43
2023-04-07T11:00:05.602Z,5.47
2023-04-07T11:02:33.612Z,4.17
2023-04-07T11:05:03.440Z,8.10
2023-04-07T11:07:55.381Z,6.37
2023-04-07T11:10:27.863Z,6.03
2023-04-07T11:13:10.607Z,5.20
2023-04-07T11:15:40.903Z,3.37
2023-04-07T11:18:14.405Z,6.17
2023-04-07T11:20:45.873Z,5.90
2023-04-07T11:23:16.759Z,6.53
2023-04-07T11:25:48.890Z,8.77
2023-04-07T11:28:16.798Z,9.40
2023-04-07T11:30:54.164Z,4.83
2023-04-07T11:33:27.281Z,7.90
2023-04-07T11:36:00.045Z,5.10
2023-04-07T11:38:38.052Z,10.43
2023-04-07T11:41:15.988Z,6.97
2023-04-07T11:43:49.362Z,10.77
2023-04-07T11:46:20.068Z,6.20
2023-04-07T11:48:49.510Z,6.50
2023-04-07T11:51:23.967Z,3.63
2023-04-07T11:53:59.995Z,6.53
2023-04-07T11:56:28.155Z,7.17
2023-04-07T11:59:02.673Z,6.57
2023-04-07T12:01:45.040Z,5.93
2023-04-07T12:04:18.757Z,5.37
2023-04-07T12:06:49.052Z,6.50
2023-04-07T12:09:48.742Z,5.67
2023-04-07T12:12:29.273Z,6.27
2023-04-07T12:14:57.367Z,2.90
2023-04-07T12:17:28.130Z,7.97
2023-04-07T12:19:58.296Z,6.63
2023-04-07T12:22:25.890Z,8.40
2023-04-07T12:24:52.977Z,7.60
2023-04-07T12:27:36.046Z,5.70
2023-04-07T12:30:09.944Z,5.13
2023-04-07T12:32:39.356Z,8.83
2023-04-07T12:35:06.946Z,8.67
2023-04-07T12:37:34.156Z,8.00
2023-04-07T12:40:01.342Z,8.10
2023-04-07T12:42:28.774Z,9.37
2023-04-07T12:44:56.834Z,7.53
2023-04-07T12:47:26.363Z,9.00
2023-04-07T12:49:53.492Z,7.67
2023-04-07T12:52:20.982Z,6.90
2023-04-07T12:54:48.124Z,9.00
2023-04-07T12:57:16.184Z,7.93
2023-04-07T12:59:43.426Z,8.77
2023-04-07T13:02:11.925Z,5.00
2023-04-07T13:04:43.570Z,8.47
2023-04-07T13:07:12.871Z,6.10
2023-04-07T13:09:43.452Z,4.83
2023-04-07T13:12:15.584Z,6.23
2023-04-07T13:14:59.159Z,5.00
2023-04-07T13:17:32.113Z,7.80
2023-04-07T13:19:59.293Z,6.57
2023-04-07T13:22:29.276Z,5.27
2023-04-07T13:25:00.223Z,5.07
2023-04-07T13:27:30.577Z,4.67
2023-04-07T13:30:00.266Z,8.90
2023-04-07T13:32:27.784Z,3.50
2023-04-07T13:34:54.946Z,7.20
2023-04-07T13:37:24.517Z,8.27
2023-04-07T13:39:57.583Z,6.43
2023-04-07T13:42:27.275Z,4.70
2023-04-07T13:44:54.665Z,3.87
2023-04-07T13:47:22.610Z,3.13
2023-04-07T13:49:54.859Z,6.07
2023-04-07T13:52:22.026Z,4.50
2023-04-07T13:54:54.045Z,5.30
2023-04-07T13:57:23.487Z,5.47
2023-04-07T13:59:54.335Z,6.17
2023-04-07T14:02:21.888Z,6.73
2023-04-07T14:04:49.266Z,8.10
2023-04-07T14:07:16.813Z,7.47
2023-04-07T14:09:48.188Z,3.90
2023-04-07T14:12:18.085Z,5.40
2023-04-07T14:14:45.313Z,5.80
2023-04-07T14:17:17.099Z,3.87
2023-04-07T14:19:51.115Z,5.97
2023-04-07T14:22:20.928Z,7.53
2023-04-07T14:24:48.080Z,4.57
2023-04-07T14:27:21.011Z,4.70
2023-04-07T14:29:49.271Z,8.20
2023-04-07T14:32:18.719Z,5.00
2023-04-07T14:34:52.968Z,6.17
2023-04-07T14:37:26.192Z,4.57
2023-04-07T14:40:02.552Z,5.47
2023-04-07T14:42:36.992Z,4.70
2023-04-07T14:45:08.985Z,3.30
2023-04-07T14:47:36.149Z,1.93
2023-04-07T14:50:03.864Z,2.80
2023-04-07T14:52:30.988Z,2.30
2023-04-07T14:55:00.680Z,1.83
2023-04-07T14:57:29.725Z,1.53
2023-04-07T14:59:59.316Z,2.07
2023-04-07T15:02:29.549Z,3.53
2023-04-07T15:04:59.482Z,3.03
2023-04-07T15:07:29.240Z,3.23
2023-04-07T15:09:59.792Z,3.77
2023-04-07T15:12:29.786Z,3.50
2023-04-07T15:15:01.696Z,1.07
2023-04-07T15:17:42.943Z,2.27
2023-04-07T15:20:13.773Z,5.37
2023-04-07T15:22:41.055Z,2.63
2023-04-07T15:25:08.725Z,4.27
2023-04-07T15:27:38.439Z,3.30
2023-04-07T15:30:06.159Z,2.33
2023-04-07T15:32:35.553Z,2.90
2023-04-07T15:35:05.522Z,4.83
2023-04-07T15:37:32.665Z,3.70
2023-04-07T15:40:01.914Z,3.17
2023-04-07T15:42:29.164Z,4.80
2023-04-07T15:44:56.344Z,3.33
2023-04-07T15:47:23.556Z,4.47
2023-04-07T15:49:52.939Z,2.80
2023-04-07T15:52:20.126Z,2.53
2023-04-07T15:54:47.241Z,3.57
2023-04-07T15:57:21.213Z,3.37
2023-04-07T15:59:52.135Z,3.33
2023-04-07T16:02:19.409Z,5.37
2023-04-07T16:04:47.620Z,7.57
2023-04-07T16:07:17.032Z,3.47
2023-04-07T16:09:44.139Z,4.17
2023-04-07T16:12:13.390Z,6.47
2023-04-07T16:14:42.637Z,6.57
2023-04-07T16:17:12.444Z,5.17
2023-04-07T16:19:43.956Z,6.00
2023-04-07T16:22:13.644Z,4.57
2023-04-07T16:24:43.223Z,7.60
2023-04-07T16:27:11.196Z,3.60
2023-04-07T16:29:38.407Z,6.97
2023-04-07T16:32:08.137Z,3.83
2023-04-07T16:34:37.891Z,3.50
2023-04-07T16:37:05.022Z,3.37
2023-04-07T16:39:34.256Z,5.37
2023-04-07T16:42:03.718Z,3.70
2023-04-07T16:44:32.831Z,3.00
2023-04-07T16:47:03.409Z,4.93
2023-04-07T16:49:30.874Z,4.23
2023-04-07T16:52:01.003Z,5.73
2023-04-07T16:54:28.210Z,4.07
2023-04-07T16:57:00.062Z,6.10
2023-04-07T16:59:27.264Z,9.43
2023-04-07T17:01:56.707Z,6.90
2023-04-07T17:04:26.317Z,7.00
2023-04-07T17:06:58.194Z,5.83
2023-04-07T17:09:28.467Z,5.17
2023-04-07T17:11:57.912Z,5.33
2023-04-07T17:14:25.220Z,4.30
2023-04-07T17:16:57.240Z,6.60
2023-04-07T17:19:27.230Z,6.00
2023-04-07T17:21:56.667Z,7.93
2023-04-07T17:24:26.391Z,5.07
2023-04-07T17:26:58.104Z,6.90
2023-04-07T17:29:29.251Z,6.03
2023-04-07T17:31:58.851Z,6.97
2023-04-07T17:34:26.112Z,4.77
2023-04-07T17:36:55.595Z,3.47
2023-04-07T17:39:27.251Z,4.77
2023-04-07T17:41:54.424Z,5.67
2023-04-07T17:44:23.830Z,3.87
2023-04-07T17:46:51.052Z,6.43
2023-04-07T17:49:21.380Z,6.27
2023-04-07T17:51:48.521Z,7.43
2023-04-07T17:54:16.156Z,5.50
2023-04-07T17:56:46.158Z,4.90
2023-04-07T17:59:13.204Z,5.90
2023-04-07T18:01:40.429Z,5.17
2023-04-07T18:04:07.728Z,5.00
2023-04-07T18:06:35.214Z,3.43
2023-04-07T18:09:04.903Z,3.80
2023-04-07T18:11:32.767Z,7.40
2023-04-07T18:14:00.122Z,5.07
2023-04-07T18:16:29.908Z,6.03
2023-04-07T18:18:57.598Z,6.33
2023-04-07T18:21:29.440Z,5.63
2023-04-07T18:23:56.900Z,8.83
2023-04-07T18:26:24.272Z,6.37
2023-04-07T18:28:53.933Z,7.87
2023-04-07T18:31:21.146Z,5.77
2023-04-07T18:33:52.717Z,6.27
2023-04-07T18:36:22.132Z,4.27
2023-04-07T18:38:49.305Z,4.70
2023-04-07T18:41:16.522Z,6.70
2023-04-07T18:43:46.002Z,4.73
2023-04-07T18:46:13.464Z,8.23
2023-04-07T18:48:43.990Z,4.77
2023-04-07T18:51:11.809Z,5.57
2023-04-07T18:53:39.017Z,8.77
2023-04-07T18:56:08.507Z,9.03
2023-04-07T18:58:43.885Z,5.47
2023-04-07T19:01:14.306Z,4.47
2023-04-07T19:03:43.924Z,7.87
2023-04-07T19:06:17.089Z,4.23
2023-04-07T19:08:44.322Z,6.17
2023-04-07T19:11:11.912Z,7.40
2023-04-07T19:13:39.227Z,8.43
2023-04-07T19:16:07.669Z,5.20
2023-04-07T19:18:34.945Z,7.50
2023-04-07T19:21:05.136Z,5.50
2023-04-07T19:23:32.535Z,6.30
2023-04-07T19:26:00.951Z,8.73
2023-04-07T19:28:28.128Z,6.43
2023-04-07T19:30:56.004Z,5.40
2023-04-07T19:33:25.855Z,4.97
2023-04-07T19:35:53.053Z,6.67
2023-04-07T19:38:20.399Z,8.43
2023-04-07T19:40:47.644Z,7.27
2023-04-07T19:43:16.482Z,6.90
2023-04-07T19:45:43.704Z,6.17
2023-04-07T19:48:12.929Z,5.30
2023-04-07T19:50:49.556Z,6.40
2023-04-07T19:53:26.094Z,5.10
2023-04-07T19:55:58.558Z,3.83
2023-04-07T19:58:25.870Z,4.93
2023-04-07T20:00:58.092Z,7.63
2023-04-07T20:03:27.987Z,4.07
2023-04-07T20:06:00.051Z,6.47
2023-04-07T20:08:27.273Z,4.03
2023-04-07T20:10:54.419Z,4.00
2023-04-07T20:13:28.103Z,5.77
2023-04-07T20:15:55.518Z,7.17
2023-04-07T20:18:24.881Z,4.20
2023-04-07T20:21:06.152Z,5.30
2023-04-07T20:23:34.061Z,3.83
2023-04-07T20:26:07.249Z,5.53
2023-04-07T20:28:34.396Z,6.00
2023-04-07T20:31:03.789Z,3.80
2023-04-07T20:33:33.184Z,4.27
2023-04-07T20:36:03.500Z,8.17
2023-04-07T20:38:30.765Z,7.33
2023-04-07T20:41:04.859Z,8.00
2023-04-07T20:43:34.199Z,5.50
2023-04-07T20:46:03.933Z,8.67
2023-04-07T20:48:33.782Z,6.73
2023-04-07T20:51:05.931Z,6.17
2023-04-07T20:53:35.289Z,7.30
2023-04-07T20:56:03.078Z,7.70
2023-04-07T20:58:30.256Z,5.20
2023-04-07T21:01:01.603Z,4.57
2023-04-07T21:03:35.941Z,7.33
2023-04-07T21:06:06.002Z,7.27
2023-04-07T21:08:35.160Z,8.67
2023-04-07T21:11:04.766Z,5.63
2023-04-07T21:13:31.946Z,8.73
2023-04-07T21:16:03.753Z,9.70
2023-04-07T21:18:31.010Z,7.17
2023-04-07T21:21:02.174Z,5.37
2023-04-07T21:23:31.328Z,6.07
2023-04-07T21:26:03.257Z,7.40
2023-04-07T21:28:35.408Z,6.80
2023-04-07T21:31:03.822Z,9.10
2023-04-07T21:33:35.847Z,9.23
2023-04-07T21:36:06.463Z,6.70
2023-04-07T21:38:36.491Z,10.93
2023-04-07T21:41:06.147Z,11.20
2023-04-07T21:43:34.682Z,8.23
2023-04-07T21:46:01.838Z,6.53
2023-04-07T21:48:30.181Z,10.03
2023-04-07T21:50:59.557Z,7.90
2023-04-07T21:53:28.800Z,7.53
2023-04-07T21:55:58.054Z,10.10
2023-04-07T21:58:29.685Z,6.67
2023-04-07T22:01:00.042Z,9.17
2023-04-07T22:03:30.089Z,8.53
2023-04-07T22:06:01.171Z,5.97
2023-04-07T22:08:30.840Z,9.20
2023-04-07T22:11:02.733Z,9.87
2023-04-07T22:13:29.887Z,10.20
2023-04-07T22:16:02.134Z,6.23
2023-04-07T22:18:29.554Z,9.90
2023-04-07T22:20:56.722Z,8.47
2023-04-07T22:23:23.927Z,9.37
2023-04-07T22:25:51.212Z,9.47
2023-04-07T22:28:18.380Z,8.27
2023-04-07T22:30:47.981Z,10.40
2023-04-07T22:33:15.096Z,7.73
2023-04-07T22:35:42.274Z,9.77
2023-04-07T22:38:17.248Z,8.03
2023-04-07T22:40:49.433Z,11.50
2023-04-07T22:43:18.613Z,7.43
2023-04-07T22:45:48.302Z,9.67
2023-04-07T22:48:16.239Z,8.37
2023-04-07T22:50:45.697Z,13.73
2023-04-07T22:53:12.868Z,9.10
2023-04-07T22:55:40.823Z,6.77
2023-04-07T22:58:12.630Z,11.23
2023-04-07T23:00:39.886Z,12.13
2023-04-07T23:03:09.378Z,7.93
2023-04-07T23:05:37.040Z,8.80
2023-04-07T23:08:04.319Z,12.20
2023-04-07T23:10:32.321Z,13.00
2023-04-07T23:13:01.874Z,12.90
2023-04-07T23:15:31.119Z,11.57
2023-04-07T23:18:02.898Z,10.67
2023-04-07T23:20:33.592Z,11.70
2023-04-07T23:23:03.434Z,10.73
2023-04-07T23:25:35.597Z,8.47
2023-04-07T23:28:02.728Z,9.73
2023-04-07T23:30:32.121Z,10.37
2023-04-07T23:32:59.386Z,7.20
2023-04-07T23:35:26.642Z,12.83
2023-04-07T23:37:56.027Z,9.50
2023-04-07T23:40:27.755Z,9.80
2023-04-07T23:42:54.887Z,9.00
2023-04-07T23:45:24.592Z,10.93
2023-04-07T23:47:51.968Z,11.70
2023-04-07T23:50:23.880Z,9.97
2023-04-07T23:52:51.029Z,11.50
2023-04-07T23:55:20.632Z,11.00
2023-04-07T23:57:47.772Z,11.77
